sensor_id;sensor_type;location;lat;lon;timestamp;P1;durP1;ratioP1;P2;durP2;ratioP2
20298;SDS011;10308;42.688;23.256;2024-03-17T00:01:00;16.30;;;14.90;;
20298;SDS011;10308;42.688;23.256;2024-03-17T00:03:27;17.10;;;15.60;;
20298;SDS011;10308;42.688;23.256;2024-03-17T00:05:57;16.40;;;15.00;;
20298;SDS011;10308;42.688;23.256;2024-03-17T00:08:25;16.75;;;15.23;;
20298;SDS011;10308;42.688;23.256;2024-03-17T00:10:52;17.88;;;16.27;;
20298;SDS011;10308;42.688;23.256;2024-03-17T00:13:18;18.83;;;16.83;;
20298;SDS011;10308;42.688;23.256;2024-03-17T00:15:46;18.52;;;16.73;;
20298;SDS011;10308;42.688;23.256;2024-03-17T00:18:12;20.13;;;17.98;;
20298;SDS011;10308;42.688;23.256;2024-03-17T00:20:39;20.10;;;18.05;;
20298;SDS011;10308;42.688;23.256;2024-03-17T00:23:05;19.17;;;16.95;;
20298;SDS011;10308;42.688;23.256;2024-03-17T00:25:36;19.48;;;17.48;;
20298;SDS011;10308;42.688;23.256;2024-03-17T00:28:02;19.55;;;17.67;;
20298;SDS011;10308;42.688;23.256;2024-03-17T00:30:29;18.30;;;16.60;;
20298;SDS011;10308;42.688;23.256;2024-03-17T00:32:57;19.10;;;17.10;;
20298;SDS011;10308;42.688;23.256;2024-03-17T00:35:24;19.85;;;17.88;;
20298;SDS011;10308;42.688;23.256;2024-03-17T00:37:50;20.20;;;18.05;;
20298;SDS011;10308;42.688;23.256;2024-03-17T00:40:18;18.98;;;17.27;;
20298;SDS011;10308;42.688;23.256;2024-03-17T00:42:46;19.92;;;17.95;;
20298;SDS011;10308;42.688;23.256;2024-03-17T00:45:14;20.40;;;18.23;;
20298;SDS011;10308;42.688;23.256;2024-03-17T00:47:41;19.67;;;17.73;;
20298;SDS011;10308;42.688;23.256;2024-03-17T00:50:09;18.75;;;16.95;;
20298;SDS011;10308;42.688;23.256;2024-03-17T00:52:36;18.45;;;16.75;;
20298;SDS011;10308;42.688;23.256;2024-03-17T00:55:04;16.25;;;14.73;;
20298;SDS011;10308;42.688;23.256;2024-03-17T00:57:31;17.15;;;15.57;;
20298;SDS011;10308;42.688;23.256;2024-03-17T00:59:59;16.30;;;14.80;;
20298;SDS011;10308;42.688;23.256;2024-03-17T01:02:26;17.15;;;15.63;;
20298;SDS011;10308;42.688;23.256;2024-03-17T01:04:53;16.75;;;15.25;;
20298;SDS011;10308;42.688;23.256;2024-03-17T01:07:19;16.90;;;15.40;;
20298;SDS011;10308;42.688;23.256;2024-03-17T01:09:46;17.20;;;15.38;;
20298;SDS011;10308;42.688;23.256;2024-03-17T01:12:13;17.85;;;16.17;;
20298;SDS011;10308;42.688;23.256;2024-03-17T01:14:40;17.38;;;15.73;;
20298;SDS011;10308;42.688;23.256;2024-03-17T01:17:07;16.90;;;15.40;;
20298;SDS011;10308;42.688;23.256;2024-03-17T01:19:34;16.85;;;15.35;;
20298;SDS011;10308;42.688;23.256;2024-03-17T01:22:00;17.02;;;15.52;;
20298;SDS011;10308;42.688;23.256;2024-03-17T01:24:28;17.48;;;15.90;;
20298;SDS011;10308;42.688;23.256;2024-03-17T01:26:57;18.05;;;16.35;;
20298;SDS011;10308;42.688;23.256;2024-03-17T01:29:24;17.17;;;15.63;;
20298;SDS011;10308;42.688;23.256;2024-03-17T01:31:50;17.42;;;15.93;;
20298;SDS011;10308;42.688;23.256;2024-03-17T01:34:19;17.63;;;16.02;;
20298;SDS011;10308;42.688;23.256;2024-03-17T01:36:47;17.88;;;16.27;;
20298;SDS011;10308;42.688;23.256;2024-03-17T01:39:14;17.35;;;15.75;;
20298;SDS011;10308;42.688;23.256;2024-03-17T01:41:41;17.63;;;16.05;;
20298;SDS011;10308;42.688;23.256;2024-03-17T01:44:08;17.98;;;16.27;;
20298;SDS011;10308;42.688;23.256;2024-03-17T01:46:47;15.90;;;14.40;;
20298;SDS011;10308;42.688;23.256;2024-03-17T01:49:14;17.45;;;15.95;;
20298;SDS011;10308;42.688;23.256;2024-03-17T01:51:45;17.52;;;15.93;;
20298;SDS011;10308;42.688;23.256;2024-03-17T01:54:14;20.65;;;18.75;;
20298;SDS011;10308;42.688;23.256;2024-03-17T01:56:40;18.67;;;16.92;;
20298;SDS011;10308;42.688;23.256;2024-03-17T01:59:08;18.48;;;16.67;;
20298;SDS011;10308;42.688;23.256;2024-03-17T02:01:34;17.95;;;16.15;;
20298;SDS011;10308;42.688;23.256;2024-03-17T02:04:02;18.10;;;16.50;;
20298;SDS011;10308;42.688;23.256;2024-03-17T02:06:28;18.23;;;16.52;;
20298;SDS011;10308;42.688;23.256;2024-03-17T02:08:57;17.75;;;16.15;;
20298;SDS011;10308;42.688;23.256;2024-03-17T02:11:24;17.00;;;15.48;;
20298;SDS011;10308;42.688;23.256;2024-03-17T02:13:55;17.63;;;16.02;;
20298;SDS011;10308;42.688;23.256;2024-03-17T02:16:21;17.83;;;16.15;;
20298;SDS011;10308;42.688;23.256;2024-03-17T02:18:48;17.83;;;16.23;;
20298;SDS011;10308;42.688;23.256;2024-03-17T02:21:14;16.95;;;15.40;;
20298;SDS011;10308;42.688;23.256;2024-03-17T02:23:46;18.13;;;16.33;;
20298;SDS011;10308;42.688;23.256;2024-03-17T02:26:12;17.77;;;16.10;;
20298;SDS011;10308;42.688;23.256;2024-03-17T02:28:39;18.45;;;16.70;;
20298;SDS011;10308;42.688;23.256;2024-03-17T02:31:06;18.40;;;16.80;;
20298;SDS011;10308;42.688;23.256;2024-03-17T02:33:35;17.98;;;16.27;;
20298;SDS011;10308;42.688;23.256;2024-03-17T02:36:01;16.98;;;15.48;;
20298;SDS011;10308;42.688;23.256;2024-03-17T02:38:29;17.63;;;16.13;;
20298;SDS011;10308;42.688;23.256;2024-03-17T02:41:17;18.40;;;16.75;;
20298;SDS011;10308;42.688;23.256;2024-03-17T02:43:44;18.13;;;16.48;;
20298;SDS011;10308;42.688;23.256;2024-03-17T02:46:11;17.77;;;16.10;;
20298;SDS011;10308;42.688;23.256;2024-03-17T02:48:39;19.35;;;17.30;;
20298;SDS011;10308;42.688;23.256;2024-03-17T02:51:10;17.40;;;15.80;;
20298;SDS011;10308;42.688;23.256;2024-03-17T02:53:38;17.90;;;16.25;;
20298;SDS011;10308;42.688;23.256;2024-03-17T02:56:05;17.77;;;16.10;;
20298;SDS011;10308;42.688;23.256;2024-03-17T02:58:34;18.45;;;16.63;;
20298;SDS011;10308;42.688;23.256;2024-03-17T03:01:02;18.48;;;16.67;;
20298;SDS011;10308;42.688;23.256;2024-03-17T03:03:29;18.77;;;17.00;;
20298;SDS011;10308;42.688;23.256;2024-03-17T03:05:56;18.42;;;16.73;;
20298;SDS011;10308;42.688;23.256;2024-03-17T03:08:26;19.08;;;17.27;;
20298;SDS011;10308;42.688;23.256;2024-03-17T03:10:53;17.85;;;16.20;;
20298;SDS011;10308;42.688;23.256;2024-03-17T03:13:20;18.42;;;16.73;;
20298;SDS011;10308;42.688;23.256;2024-03-17T03:15:48;18.35;;;16.60;;
20298;SDS011;10308;42.688;23.256;2024-03-17T03:18:15;19.13;;;17.30;;
20298;SDS011;10308;42.688;23.256;2024-03-17T03:20:49;19.58;;;17.63;;
20298;SDS011;10308;42.688;23.256;2024-03-17T03:23:17;20.13;;;17.98;;
20298;SDS011;10308;42.688;23.256;2024-03-17T03:25:44;19.52;;;17.63;;
20298;SDS011;10308;42.688;23.256;2024-03-17T03:28:11;19.25;;;17.33;;
20298;SDS011;10308;42.688;23.256;2024-03-17T03:30:38;21.83;;;16.52;;
20298;SDS011;10308;42.688;23.256;2024-03-17T03:33:07;18.02;;;16.35;;
20298;SDS011;10308;42.688;23.256;2024-03-17T03:35:35;19.45;;;17.55;;
20298;SDS011;10308;42.688;23.256;2024-03-17T03:38:02;18.88;;;17.15;;
20298;SDS011;10308;42.688;23.256;2024-03-17T03:40:32;18.25;;;16.35;;
20298;SDS011;10308;42.688;23.256;2024-03-17T03:43:01;18.40;;;16.67;;
20298;SDS011;10308;42.688;23.256;2024-03-17T03:45:28;18.45;;;16.73;;
20298;SDS011;10308;42.688;23.256;2024-03-17T03:47:55;20.33;;;16.10;;
20298;SDS011;10308;42.688;23.256;2024-03-17T03:50:24;16.95;;;15.35;;
20298;SDS011;10308;42.688;23.256;2024-03-17T03:52:50;17.13;;;15.52;;
20298;SDS011;10308;42.688;23.256;2024-03-17T03:55:18;17.67;;;16.00;;
20298;SDS011;10308;42.688;23.256;2024-03-17T03:57:45;18.90;;;17.20;;
20298;SDS011;10308;42.688;23.256;2024-03-17T04:00:13;18.98;;;17.02;;
20298;SDS011;10308;42.688;23.256;2024-03-17T04:02:40;18.52;;;16.83;;
20298;SDS011;10308;42.688;23.256;2024-03-17T04:05:08;17.70;;;16.10;;
20298;SDS011;10308;42.688;23.256;2024-03-17T04:07:37;17.83;;;16.08;;
20298;SDS011;10308;42.688;23.256;2024-03-17T04:10:05;18.98;;;17.17;;
20298;SDS011;10308;42.688;23.256;2024-03-17T04:12:32;18.40;;;16.65;;
20298;SDS011;10308;42.688;23.256;2024-03-17T04:14:59;19.20;;;17.42;;
20298;SDS011;10308;42.688;23.256;2024-03-17T04:17:27;19.33;;;17.42;;
20298;SDS011;10308;42.688;23.256;2024-03-17T04:19:54;17.65;;;15.95;;
20298;SDS011;10308;42.688;23.256;2024-03-17T04:22:21;17.13;;;15.43;;
20298;SDS011;10308;42.688;23.256;2024-03-17T04:24:50;18.20;;;16.40;;
20298;SDS011;10308;42.688;23.256;2024-03-17T04:27:19;18.48;;;16.58;;
20298;SDS011;10308;42.688;23.256;2024-03-17T04:29:46;18.80;;;16.80;;
20298;SDS011;10308;42.688;23.256;2024-03-17T04:32:14;18.42;;;16.30;;
20298;SDS011;10308;42.688;23.256;2024-03-17T04:34:40;18.42;;;16.63;;
20298;SDS011;10308;42.688;23.256;2024-03-17T04:37:08;18.13;;;16.38;;
20298;SDS011;10308;42.688;23.256;2024-03-17T04:39:37;18.92;;;17.02;;
20298;SDS011;10308;42.688;23.256;2024-03-17T04:42:06;18.67;;;16.80;;
20298;SDS011;10308;42.688;23.256;2024-03-17T04:44:33;17.90;;;16.20;;
20298;SDS011;10308;42.688;23.256;2024-03-17T04:47:00;18.83;;;16.85;;
20298;SDS011;10308;42.688;23.256;2024-03-17T04:49:27;19.23;;;17.20;;
20298;SDS011;10308;42.688;23.256;2024-03-17T04:51:54;19.98;;;16.88;;
20298;SDS011;10308;42.688;23.256;2024-03-17T04:54:21;18.67;;;16.90;;
20298;SDS011;10308;42.688;23.256;2024-03-17T04:56:48;18.75;;;16.98;;
20298;SDS011;10308;42.688;23.256;2024-03-17T04:59:16;19.02;;;17.13;;
20298;SDS011;10308;42.688;23.256;2024-03-17T05:01:43;18.88;;;16.98;;
20298;SDS011;10308;42.688;23.256;2024-03-17T05:04:11;20.00;;;16.98;;
20298;SDS011;10308;42.688;23.256;2024-03-17T05:06:37;18.85;;;16.88;;
20298;SDS011;10308;42.688;23.256;2024-03-17T05:09:07;19.75;;;17.58;;
20298;SDS011;10308;42.688;23.256;2024-03-17T05:11:34;18.75;;;16.73;;
20298;SDS011;10308;42.688;23.256;2024-03-17T05:14:02;20.25;;;17.20;;
20298;SDS011;10308;42.688;23.256;2024-03-17T05:16:34;19.50;;;17.38;;
20298;SDS011;10308;42.688;23.256;2024-03-17T05:19:00;20.70;;;17.45;;
20298;SDS011;10308;42.688;23.256;2024-03-17T05:21:28;19.25;;;17.35;;
20298;SDS011;10308;42.688;23.256;2024-03-17T05:23:56;18.25;;;15.73;;
20298;SDS011;10308;42.688;23.256;2024-03-17T05:26:23;18.52;;;15.80;;
20298;SDS011;10308;42.688;23.256;2024-03-17T05:28:50;21.63;;;17.60;;
20298;SDS011;10308;42.688;23.256;2024-03-17T05:31:18;20.13;;;17.92;;
20298;SDS011;10308;42.688;23.256;2024-03-17T05:33:48;19.15;;;17.10;;
20298;SDS011;10308;42.688;23.256;2024-03-17T05:36:17;18.63;;;16.73;;
20298;SDS011;10308;42.688;23.256;2024-03-17T05:38:45;19.27;;;17.38;;
20298;SDS011;10308;42.688;23.256;2024-03-17T05:41:12;20.88;;;18.67;;
20298;SDS011;10308;42.688;23.256;2024-03-17T05:43:40;19.98;;;17.88;;
20298;SDS011;10308;42.688;23.256;2024-03-17T05:46:08;18.98;;;17.08;;
20298;SDS011;10308;42.688;23.256;2024-03-17T05:48:36;20.52;;;18.42;;
20298;SDS011;10308;42.688;23.256;2024-03-17T05:51:06;20.02;;;18.02;;
20298;SDS011;10308;42.688;23.256;2024-03-17T05:53:33;22.20;;;19.90;;
20298;SDS011;10308;42.688;23.256;2024-03-17T05:56:00;21.70;;;19.50;;
20298;SDS011;10308;42.688;23.256;2024-03-17T05:58:28;21.30;;;19.10;;
20298;SDS011;10308;42.688;23.256;2024-03-17T06:00:56;20.90;;;18.00;;
20298;SDS011;10308;42.688;23.256;2024-03-17T06:03:27;21.33;;;19.27;;
20298;SDS011;10308;42.688;23.256;2024-03-17T06:05:54;21.50;;;19.38;;
20298;SDS011;10308;42.688;23.256;2024-03-17T06:08:24;21.48;;;19.27;;
20298;SDS011;10308;42.688;23.256;2024-03-17T06:10:52;22.60;;;20.23;;
20298;SDS011;10308;42.688;23.256;2024-03-17T06:13:20;21.85;;;19.60;;
20298;SDS011;10308;42.688;23.256;2024-03-17T06:15:48;23.08;;;20.63;;
20298;SDS011;10308;42.688;23.256;2024-03-17T06:18:16;21.60;;;19.52;;
20298;SDS011;10308;42.688;23.256;2024-03-17T06:20:43;22.05;;;19.88;;
20298;SDS011;10308;42.688;23.256;2024-03-17T06:23:14;21.90;;;19.65;;
20298;SDS011;10308;42.688;23.256;2024-03-17T06:25:44;21.20;;;19.20;;
20298;SDS011;10308;42.688;23.256;2024-03-17T06:28:13;19.70;;;17.80;;
20298;SDS011;10308;42.688;23.256;2024-03-17T06:30:40;24.77;;;22.25;;
20298;SDS011;10308;42.688;23.256;2024-03-17T06:33:09;19.80;;;17.58;;
20298;SDS011;10308;42.688;23.256;2024-03-17T06:35:37;15.27;;;13.77;;
20298;SDS011;10308;42.688;23.256;2024-03-17T06:38:04;15.57;;;13.98;;
20298;SDS011;10308;42.688;23.256;2024-03-17T06:40:35;15.80;;;14.30;;
20298;SDS011;10308;42.688;23.256;2024-03-17T06:43:03;15.57;;;14.18;;
20298;SDS011;10308;42.688;23.256;2024-03-17T06:45:31;16.13;;;14.63;;
20298;SDS011;10308;42.688;23.256;2024-03-17T06:47:58;13.18;;;11.77;;
20298;SDS011;10308;42.688;23.256;2024-03-17T06:50:25;12.95;;;11.65;;
20298;SDS011;10308;42.688;23.256;2024-03-17T06:52:52;13.30;;;11.20;;
20298;SDS011;10308;42.688;23.256;2024-03-17T06:55:19;12.27;;;11.00;;
20298;SDS011;10308;42.688;23.256;2024-03-17T06:57:47;11.70;;;10.45;;
20298;SDS011;10308;42.688;23.256;2024-03-17T07:00:16;11.70;;;10.35;;
20298;SDS011;10308;42.688;23.256;2024-03-17T07:02:43;12.32;;;10.88;;
20298;SDS011;10308;42.688;23.256;2024-03-17T07:05:11;11.77;;;10.40;;
20298;SDS011;10308;42.688;23.256;2024-03-17T07:07:45;12.50;;;11.18;;
20298;SDS011;10308;42.688;23.256;2024-03-17T07:10:16;12.73;;;11.43;;
20298;SDS011;10308;42.688;23.256;2024-03-17T07:12:44;13.13;;;11.40;;
20298;SDS011;10308;42.688;23.256;2024-03-17T07:15:11;11.93;;;10.70;;
20298;SDS011;10308;42.688;23.256;2024-03-17T07:17:39;12.00;;;10.88;;
20298;SDS011;10308;42.688;23.256;2024-03-17T07:20:07;11.73;;;10.52;;
20298;SDS011;10308;42.688;23.256;2024-03-17T07:22:38;14.57;;;13.10;;
20298;SDS011;10308;42.688;23.256;2024-03-17T07:25:08;15.95;;;14.43;;
20298;SDS011;10308;42.688;23.256;2024-03-17T07:27:35;22.60;;;20.27;;
20298;SDS011;10308;42.688;23.256;2024-03-17T07:30:04;26.20;;;23.42;;
20298;SDS011;10308;42.688;23.256;2024-03-17T07:32:34;26.45;;;21.83;;
20298;SDS011;10308;42.688;23.256;2024-03-17T07:35:02;24.83;;;21.58;;
20298;SDS011;10308;42.688;23.256;2024-03-17T07:37:30;21.92;;;19.63;;
20298;SDS011;10308;42.688;23.256;2024-03-17T07:39:57;20.83;;;17.30;;
20298;SDS011;10308;42.688;23.256;2024-03-17T07:42:26;18.77;;;16.77;;
20298;SDS011;10308;42.688;23.256;2024-03-17T07:44:53;18.80;;;16.58;;
20298;SDS011;10308;42.688;23.256;2024-03-17T07:47:20;18.58;;;16.65;;
20298;SDS011;10308;42.688;23.256;2024-03-17T07:49:47;19.92;;;16.13;;
20298;SDS011;10308;42.688;23.256;2024-03-17T07:52:16;20.42;;;18.33;;
20298;SDS011;10308;42.688;23.256;2024-03-17T07:54:44;18.00;;;16.02;;
20298;SDS011;10308;42.688;23.256;2024-03-17T07:57:12;19.48;;;17.58;;
20298;SDS011;10308;42.688;23.256;2024-03-17T07:59:40;19.35;;;17.38;;
20298;SDS011;10308;42.688;23.256;2024-03-17T08:02:08;18.20;;;16.30;;
20298;SDS011;10308;42.688;23.256;2024-03-17T08:04:35;18.33;;;16.55;;
20298;SDS011;10308;42.688;23.256;2024-03-17T08:07:04;17.75;;;15.90;;
20298;SDS011;10308;42.688;23.256;2024-03-17T08:09:33;17.80;;;15.90;;
20298;SDS011;10308;42.688;23.256;2024-03-17T08:12:01;16.65;;;15.05;;
20298;SDS011;10308;42.688;23.256;2024-03-17T08:14:29;15.82;;;14.13;;
20298;SDS011;10308;42.688;23.256;2024-03-17T08:16:56;16.20;;;14.25;;
20298;SDS011;10308;42.688;23.256;2024-03-17T08:19:23;15.35;;;13.85;;
20298;SDS011;10308;42.688;23.256;2024-03-17T08:21:52;15.55;;;14.05;;
20298;SDS011;10308;42.688;23.256;2024-03-17T08:24:19;14.68;;;13.18;;
20298;SDS011;10308;42.688;23.256;2024-03-17T08:26:48;22.48;;;13.13;;
20298;SDS011;10308;42.688;23.256;2024-03-17T08:29:16;15.80;;;14.27;;
20298;SDS011;10308;42.688;23.256;2024-03-17T08:31:43;14.55;;;13.15;;
20298;SDS011;10308;42.688;23.256;2024-03-17T08:34:10;14.18;;;12.80;;
20298;SDS011;10308;42.688;23.256;2024-03-17T08:36:39;13.52;;;12.23;;
20298;SDS011;10308;42.688;23.256;2024-03-17T08:39:06;14.15;;;12.75;;
20298;SDS011;10308;42.688;23.256;2024-03-17T08:41:34;13.45;;;12.13;;
20298;SDS011;10308;42.688;23.256;2024-03-17T08:44:03;13.63;;;12.27;;
20298;SDS011;10308;42.688;23.256;2024-03-17T08:46:32;13.30;;;11.93;;
20298;SDS011;10308;42.688;23.256;2024-03-17T08:48:59;12.23;;;11.02;;
20298;SDS011;10308;42.688;23.256;2024-03-17T08:51:29;13.60;;;12.20;;
20298;SDS011;10308;42.688;23.256;2024-03-17T08:53:59;13.90;;;12.60;;
20298;SDS011;10308;42.688;23.256;2024-03-17T08:56:27;13.13;;;11.70;;
20298;SDS011;10308;42.688;23.256;2024-03-17T08:58:55;12.38;;;11.27;;
20298;SDS011;10308;42.688;23.256;2024-03-17T09:01:24;12.52;;;11.43;;
20298;SDS011;10308;42.688;23.256;2024-03-17T09:03:52;12.52;;;11.32;;
20298;SDS011;10308;42.688;23.256;2024-03-17T09:06:21;14.48;;;12.98;;
20298;SDS011;10308;42.688;23.256;2024-03-17T09:08:50;13.43;;;12.07;;
20298;SDS011;10308;42.688;23.256;2024-03-17T09:11:17;12.25;;;11.05;;
20298;SDS011;10308;42.688;23.256;2024-03-17T09:13:49;13.10;;;11.80;;
20298;SDS011;10308;42.688;23.256;2024-03-17T09:16:17;11.20;;;10.10;;
20298;SDS011;10308;42.688;23.256;2024-03-17T09:18:49;11.13;;;10.00;;
20298;SDS011;10308;42.688;23.256;2024-03-17T09:21:18;10.98;;;9.98;;
20298;SDS011;10308;42.688;23.256;2024-03-17T09:23:45;9.77;;;8.88;;
20298;SDS011;10308;42.688;23.256;2024-03-17T09:26:12;9.60;;;8.70;;
20298;SDS011;10308;42.688;23.256;2024-03-17T09:28:41;9.48;;;8.48;;
20298;SDS011;10308;42.688;23.256;2024-03-17T09:31:09;10.55;;;9.48;;
20298;SDS011;10308;42.688;23.256;2024-03-17T09:33:37;8.82;;;8.02;;
20298;SDS011;10308;42.688;23.256;2024-03-17T09:36:07;9.55;;;8.68;;
20298;SDS011;10308;42.688;23.256;2024-03-17T09:38:36;8.85;;;7.93;;
20298;SDS011;10308;42.688;23.256;2024-03-17T09:41:05;9.07;;;8.20;;
20298;SDS011;10308;42.688;23.256;2024-03-17T09:43:33;8.85;;;8.10;;
20298;SDS011;10308;42.688;23.256;2024-03-17T09:46:02;8.55;;;7.85;;
20298;SDS011;10308;42.688;23.256;2024-03-17T09:48:29;8.30;;;7.53;;
20298;SDS011;10308;42.688;23.256;2024-03-17T09:50:57;8.75;;;8.05;;
20298;SDS011;10308;42.688;23.256;2024-03-17T09:53:26;7.45;;;6.78;;
20298;SDS011;10308;42.688;23.256;2024-03-17T09:55:57;7.00;;;6.28;;
20298;SDS011;10308;42.688;23.256;2024-03-17T09:58:25;6.95;;;6.13;;
20298;SDS011;10308;42.688;23.256;2024-03-17T10:00:52;6.55;;;6.03;;
20298;SDS011;10308;42.688;23.256;2024-03-17T10:06:07;6.65;;;5.78;;
20298;SDS011;10308;42.688;23.256;2024-03-17T10:08:47;7.15;;;6.55;;
20298;SDS011;10308;42.688;23.256;2024-03-17T10:11:16;6.18;;;5.68;;
20298;SDS011;10308;42.688;23.256;2024-03-17T10:13:45;6.10;;;5.60;;
20298;SDS011;10308;42.688;23.256;2024-03-17T10:16:21;6.65;;;6.05;;
20298;SDS011;10308;42.688;23.256;2024-03-17T10:18:50;6.05;;;5.55;;
20298;SDS011;10308;42.688;23.256;2024-03-17T10:21:24;5.80;;;5.30;;
20298;SDS011;10308;42.688;23.256;2024-03-17T10:24:04;5.18;;;4.70;;
20298;SDS011;10308;42.688;23.256;2024-03-17T10:26:33;6.50;;;5.82;;
20298;SDS011;10308;42.688;23.256;2024-03-17T10:29:02;6.63;;;5.57;;
20298;SDS011;10308;42.688;23.256;2024-03-17T10:31:30;6.75;;;5.72;;
20298;SDS011;10308;42.688;23.256;2024-03-17T10:34:01;6.63;;;5.68;;
20298;SDS011;10308;42.688;23.256;2024-03-17T10:36:29;6.63;;;6.03;;
20298;SDS011;10308;42.688;23.256;2024-03-17T10:38:56;7.25;;;6.53;;
20298;SDS011;10308;42.688;23.256;2024-03-17T10:41:24;6.85;;;6.25;;
20298;SDS011;10308;42.688;23.256;2024-03-17T10:43:53;7.78;;;6.63;;
20298;SDS011;10308;42.688;23.256;2024-03-17T10:46:24;6.95;;;6.28;;
20298;SDS011;10308;42.688;23.256;2024-03-17T10:48:52;6.82;;;6.13;;
20298;SDS011;10308;42.688;23.256;2024-03-17T10:51:20;6.45;;;5.85;;
20298;SDS011;10308;42.688;23.256;2024-03-17T10:53:47;5.97;;;5.38;;
20298;SDS011;10308;42.688;23.256;2024-03-17T10:56:15;5.57;;;4.97;;
20298;SDS011;10308;42.688;23.256;2024-03-17T10:58:48;7.07;;;5.43;;
20298;SDS011;10308;42.688;23.256;2024-03-17T11:01:23;5.65;;;5.07;;
20298;SDS011;10308;42.688;23.256;2024-03-17T11:03:53;6.55;;;5.82;;
20298;SDS011;10308;42.688;23.256;2024-03-17T11:06:31;6.13;;;5.50;;
20298;SDS011;10308;42.688;23.256;2024-03-17T11:08:58;5.43;;;4.93;;
20298;SDS011;10308;42.688;23.256;2024-03-17T11:11:35;5.32;;;4.82;;
20298;SDS011;10308;42.688;23.256;2024-03-17T11:14:20;6.72;;;5.18;;
20298;SDS011;10308;42.688;23.256;2024-03-17T11:16:48;5.53;;;4.80;;
20298;SDS011;10308;42.688;23.256;2024-03-17T11:19:20;4.97;;;4.47;;
20298;SDS011;10308;42.688;23.256;2024-03-17T11:21:48;4.20;;;3.90;;
20298;SDS011;10308;42.688;23.256;2024-03-17T11:24:19;5.00;;;3.90;;
20298;SDS011;10308;42.688;23.256;2024-03-17T11:26:52;4.40;;;4.00;;
20298;SDS011;10308;42.688;23.256;2024-03-17T11:37:42;4.35;;;3.97;;
20298;SDS011;10308;42.688;23.256;2024-03-17T11:40:23;4.32;;;4.03;;
20298;SDS011;10308;42.688;23.256;2024-03-17T11:43:00;4.60;;;4.20;;
20298;SDS011;10308;42.688;23.256;2024-03-17T11:45:32;4.38;;;3.97;;
20298;SDS011;10308;42.688;23.256;2024-03-17T11:47:59;4.55;;;4.18;;
20298;SDS011;10308;42.688;23.256;2024-03-17T11:50:31;4.88;;;4.38;;
20298;SDS011;10308;42.688;23.256;2024-03-17T11:52:57;6.85;;;5.03;;
20298;SDS011;10308;42.688;23.256;2024-03-17T11:55:25;5.50;;;4.55;;
20298;SDS011;10308;42.688;23.256;2024-03-17T11:57:55;5.80;;;4.47;;
20298;SDS011;10308;42.688;23.256;2024-03-17T12:00:22;5.13;;;4.32;;
20298;SDS011;10308;42.688;23.256;2024-03-17T12:02:51;6.32;;;4.40;;
20298;SDS011;10308;42.688;23.256;2024-03-17T12:05:18;7.05;;;4.72;;
20298;SDS011;10308;42.688;23.256;2024-03-17T12:07:47;5.60;;;5.03;;
20298;SDS011;10308;42.688;23.256;2024-03-17T12:10:15;6.22;;;5.20;;
20298;SDS011;10308;42.688;23.256;2024-03-17T12:12:41;5.13;;;4.63;;
20298;SDS011;10308;42.688;23.256;2024-03-17T12:15:16;6.82;;;6.07;;
20298;SDS011;10308;42.688;23.256;2024-03-17T12:17:43;5.57;;;4.97;;
20298;SDS011;10308;42.688;23.256;2024-03-17T12:20:18;5.90;;;5.30;;
20298;SDS011;10308;42.688;23.256;2024-03-17T12:22:44;10.50;;;8.52;;
20298;SDS011;10308;42.688;23.256;2024-03-17T12:25:17;22.95;;;12.25;;
20298;SDS011;10308;42.688;23.256;2024-03-17T12:27:44;8.32;;;7.53;;
20298;SDS011;10308;42.688;23.256;2024-03-17T12:30:14;9.20;;;8.30;;
20298;SDS011;10308;42.688;23.256;2024-03-17T12:32:40;7.15;;;6.50;;
20298;SDS011;10308;42.688;23.256;2024-03-17T12:35:12;19.08;;;16.75;;
20298;SDS011;10308;42.688;23.256;2024-03-17T12:37:42;6.47;;;5.93;;
20298;SDS011;10308;42.688;23.256;2024-03-17T12:40:20;11.32;;;8.90;;
20298;SDS011;10308;42.688;23.256;2024-03-17T12:42:47;7.45;;;6.50;;
20298;SDS011;10308;42.688;23.256;2024-03-17T12:45:19;6.45;;;5.85;;
20298;SDS011;10308;42.688;23.256;2024-03-17T12:47:47;6.43;;;5.82;;
20298;SDS011;10308;42.688;23.256;2024-03-17T12:50:14;6.57;;;5.97;;
20298;SDS011;10308;42.688;23.256;2024-03-17T12:52:44;6.30;;;5.80;;
20298;SDS011;10308;42.688;23.256;2024-03-17T12:55:19;7.32;;;6.63;;
20298;SDS011;10308;42.688;23.256;2024-03-17T12:58:07;6.63;;;6.03;;
20298;SDS011;10308;42.688;23.256;2024-03-17T13:00:56;6.13;;;5.63;;
20298;SDS011;10308;42.688;23.256;2024-03-17T13:03:28;6.32;;;5.82;;
20298;SDS011;10308;42.688;23.256;2024-03-17T13:05:57;7.22;;;6.63;;
20298;SDS011;10308;42.688;23.256;2024-03-17T13:08:25;6.80;;;6.20;;
20298;SDS011;10308;42.688;23.256;2024-03-17T13:10:53;6.63;;;6.13;;
20298;SDS011;10308;42.688;23.256;2024-03-17T13:13:20;6.55;;;6.03;;
20298;SDS011;10308;42.688;23.256;2024-03-17T13:15:47;6.97;;;6.25;;
20298;SDS011;10308;42.688;23.256;2024-03-17T13:18:16;7.90;;;7.15;;
20298;SDS011;10308;42.688;23.256;2024-03-17T13:20:45;7.65;;;6.85;;
20298;SDS011;10308;42.688;23.256;2024-03-17T13:23:15;7.93;;;7.22;;
20298;SDS011;10308;42.688;23.256;2024-03-17T13:25:48;7.68;;;6.97;;
20298;SDS011;10308;42.688;23.256;2024-03-17T13:28:16;8.32;;;7.20;;
20298;SDS011;10308;42.688;23.256;2024-03-17T13:30:43;6.72;;;6.10;;
20298;SDS011;10308;42.688;23.256;2024-03-17T13:33:09;7.13;;;6.53;;
20298;SDS011;10308;42.688;23.256;2024-03-17T13:35:38;7.38;;;6.50;;
20298;SDS011;10308;42.688;23.256;2024-03-17T13:38:06;8.90;;;8.00;;
20298;SDS011;10308;42.688;23.256;2024-03-17T13:40:35;8.05;;;7.20;;
20298;SDS011;10308;42.688;23.256;2024-03-17T13:43:05;7.60;;;6.90;;
20298;SDS011;10308;42.688;23.256;2024-03-17T13:45:37;8.25;;;7.55;;
20298;SDS011;10308;42.688;23.256;2024-03-17T13:48:05;7.20;;;6.60;;
20298;SDS011;10308;42.688;23.256;2024-03-17T13:50:35;8.40;;;6.90;;
20298;SDS011;10308;42.688;23.256;2024-03-17T13:53:03;8.60;;;7.70;;
20298;SDS011;10308;42.688;23.256;2024-03-17T13:55:30;8.32;;;7.63;;
20298;SDS011;10308;42.688;23.256;2024-03-17T13:57:58;8.32;;;7.60;;
20298;SDS011;10308;42.688;23.256;2024-03-17T14:00:27;9.30;;;8.40;;
20298;SDS011;10308;42.688;23.256;2024-03-17T14:02:55;10.90;;;9.80;;
20298;SDS011;10308;42.688;23.256;2024-03-17T14:05:23;8.20;;;7.50;;
20298;SDS011;10308;42.688;23.256;2024-03-17T14:07:51;9.10;;;8.20;;
20298;SDS011;10308;42.688;23.256;2024-03-17T14:10:19;8.23;;;7.43;;
20298;SDS011;10308;42.688;23.256;2024-03-17T14:12:46;10.30;;;9.30;;
20298;SDS011;10308;42.688;23.256;2024-03-17T14:15:14;10.60;;;7.95;;
20298;SDS011;10308;42.688;23.256;2024-03-17T14:17:47;9.25;;;8.35;;
20298;SDS011;10308;42.688;23.256;2024-03-17T14:20:17;9.43;;;8.52;;
20298;SDS011;10308;42.688;23.256;2024-03-17T14:22:47;10.88;;;9.20;;
20298;SDS011;10308;42.688;23.256;2024-03-17T14:25:21;7.50;;;6.90;;
20298;SDS011;10308;42.688;23.256;2024-03-17T14:27:48;8.32;;;7.50;;
20298;SDS011;10308;42.688;23.256;2024-03-17T14:30:16;9.15;;;6.93;;
20298;SDS011;10308;42.688;23.256;2024-03-17T14:32:46;9.90;;;9.00;;
20298;SDS011;10308;42.688;23.256;2024-03-17T14:35:14;9.20;;;8.40;;
20298;SDS011;10308;42.688;23.256;2024-03-17T14:37:46;10.52;;;8.45;;